createdAt,value
2019-02-28T00:02:07.945Z,95833.27
2019-02-28T00:04:35.856Z,95831.73
2019-02-28T00:07:03.748Z,95829.45
2019-02-28T00:09:32.565Z,95832.25
2019-02-28T00:12:02.383Z,95832.69
2019-02-28T00:14:31.325Z,95823.36
2019-02-28T00:16:59.208Z,95825.25
2019-02-28T00:19:27.100Z,95825.17
2019-02-28T00:21:55.015Z,95824.87
2019-02-28T00:24:22.901Z,95816.93
2019-02-28T00:26:50.796Z,95809.91
2019-02-28T00:29:19.652Z,95810.86
2019-02-28T00:31:49.914Z,95810.73
2019-02-28T00:34:15.455Z,95803.37
2019-02-28T00:36:45.340Z,95803.60
2019-02-28T00:39:13.240Z,95802.66
2019-02-28T00:41:44.312Z,95799.98
2019-02-28T00:44:09.031Z,95795.66
2019-02-28T00:46:37.961Z,95797.00
2019-02-28T00:49:05.858Z,95789.59
2019-02-28T00:51:33.799Z,95785.47
2019-02-28T00:54:01.684Z,95785.09
2019-02-28T00:56:29.598Z,95784.34
2019-02-28T00:59:02.555Z,95779.78
2019-02-28T01:01:32.429Z,95777.75
2019-02-28T01:04:07.718Z,95774.62
2019-02-28T01:06:35.622Z,95765.30
2019-02-28T01:09:03.515Z,95760.88
2019-02-28T01:11:31.409Z,95757.20
2019-02-28T01:14:01.668Z,95752.77
2019-02-28T01:16:28.155Z,95746.52
2019-02-28T01:18:56.035Z,95745.41
2019-02-28T01:21:24.584Z,95743.73
2019-02-28T01:23:51.881Z,95744.20
2019-02-28T01:26:19.775Z,95737.12
2019-02-28T01:28:47.743Z,95732.52
2019-02-28T01:31:15.646Z,95731.14
2019-02-28T01:33:43.535Z,95724.02
2019-02-28T01:36:12.287Z,95715.89
2019-02-28T01:38:40.383Z,95718.31
2019-02-28T01:41:10.975Z,95711.16
2019-02-28T01:43:36.177Z,95714.50
2019-02-28T01:46:04.135Z,95710.95
2019-02-28T01:48:31.996Z,95707.98
2019-02-28T01:51:03.569Z,95707.52
2019-02-28T01:53:36.359Z,95706.05
2019-02-28T01:56:04.261Z,95703.88
2019-02-28T01:58:34.290Z,95699.02
2019-02-28T02:01:02.219Z,95693.00
2019-02-28T02:03:34.732Z,95688.23
2019-02-28T02:06:02.628Z,95692.86
2019-02-28T02:08:30.548Z,95686.72
2019-02-28T02:11:03.085Z,95683.27
2019-02-28T02:13:36.672Z,95684.63
2019-02-28T02:16:00.832Z,95681.56
2019-02-28T02:18:28.726Z,95678.70
2019-02-28T02:20:57.433Z,95673.94
2019-02-28T02:23:24.560Z,95673.94
2019-02-28T02:25:52.444Z,95670.62
2019-02-28T02:28:20.345Z,95669.23
2019-02-28T02:30:50.935Z,95669.05
2019-02-28T02:33:16.170Z,95663.72
2019-02-28T02:35:45.222Z,95663.23
2019-02-28T02:38:14.022Z,95661.27
2019-02-28T02:40:41.939Z,95653.04
2019-02-28T02:43:09.941Z,95659.72
2019-02-28T02:45:41.911Z,95653.67
2019-02-28T02:48:06.850Z,95653.55
2019-02-28T02:50:35.783Z,95652.84
2019-02-28T02:53:05.410Z,95654.32
2019-02-28T02:55:29.516Z,95647.19
2019-02-28T02:57:57.413Z,95645.53
2019-02-28T03:00:26.287Z,95641.30
2019-02-28T03:02:58.913Z,95643.05
2019-02-28T03:05:26.800Z,95638.81
2019-02-28T03:07:59.425Z,95635.94
2019-02-28T03:10:23.522Z,95633.67
2019-02-28T03:12:53.349Z,95625.69
2019-02-28T03:15:26.820Z,95617.27
2019-02-28T03:17:50.045Z,95609.23
2019-02-28T03:20:18.109Z,95605.97
2019-02-28T03:22:53.386Z,95606.34
2019-02-28T03:25:27.704Z,95612.46
2019-02-28T03:27:54.972Z,95606.60
2019-02-28T03:30:29.453Z,95609.02
2019-02-28T03:32:46.038Z,95601.64
2019-02-28T03:35:13.903Z,95601.28
2019-02-28T03:37:43.735Z,95601.55
2019-02-28T03:40:11.647Z,95602.44
2019-02-28T03:42:39.616Z,95604.07
2019-02-28T03:45:07.525Z,95599.05
2019-02-28T03:47:35.439Z,95599.19
2019-02-28T03:50:03.341Z,95607.30
2019-02-28T03:52:31.238Z,95600.43
2019-02-28T03:55:03.260Z,95601.70
2019-02-28T03:57:29.410Z,95604.34
2019-02-28T03:59:56.760Z,95604.22
2019-02-28T04:02:22.971Z,95604.48
2019-02-28T04:04:50.910Z,95604.91
2019-02-28T04:07:18.820Z,95600.70
2019-02-28T04:09:47.646Z,95598.03
2019-02-28T04:12:16.274Z,95599.38
2019-02-28T04:14:45.161Z,95600.90
2019-02-28T04:17:13.091Z,95603.33
2019-02-28T04:19:41.965Z,95595.06
2019-02-28T04:22:09.896Z,95597.47
2019-02-28T04:24:37.797Z,95593.63
2019-02-28T04:27:06.917Z,95596.55
2019-02-28T04:29:33.624Z,95595.80
2019-02-28T04:32:01.546Z,95586.98
2019-02-28T04:34:29.428Z,95583.64
2019-02-28T04:36:57.367Z,95580.66
2019-02-28T04:39:25.270Z,95574.20
2019-02-28T04:41:53.172Z,95573.86
2019-02-28T04:44:21.086Z,95575.75
2019-02-28T04:46:49.966Z,95569.27
2019-02-28T04:49:21.836Z,95574.64
2019-02-28T04:51:45.911Z,95574.31
2019-02-28T04:54:13.796Z,95575.65
2019-02-28T04:56:42.252Z,95576.60
2019-02-28T04:59:09.636Z,95570.96
2019-02-28T05:01:37.547Z,95570.74
2019-02-28T05:04:05.422Z,95573.95
2019-02-28T05:06:37.129Z,95569.70
2019-02-28T05:09:05.095Z,95573.05
2019-02-28T05:11:33.904Z,95571.28
2019-02-28T05:14:01.932Z,95574.47
2019-02-28T05:16:29.827Z,95569.91
2019-02-28T05:19:01.527Z,95567.25
2019-02-28T05:21:28.853Z,95562.59
2019-02-28T05:23:56.766Z,95567.84
2019-02-28T05:26:26.286Z,95559.94
2019-02-28T05:28:52.692Z,95565.18
2019-02-28T05:31:20.607Z,95562.18
2019-02-28T05:33:48.540Z,95566.85
2019-02-28T05:36:16.468Z,95558.86
2019-02-28T05:38:44.367Z,95560.48
2019-02-28T05:41:15.321Z,95564.36
2019-02-28T05:43:40.232Z,95562.56
2019-02-28T05:46:08.151Z,95563.23
2019-02-28T05:48:38.601Z,95562.78
2019-02-28T05:51:05.852Z,95563.61
2019-02-28T05:53:33.776Z,95565.67
2019-02-28T05:56:01.848Z,95562.70
2019-02-28T05:58:30.860Z,95562.23
2019-02-28T06:01:00.760Z,95564.66
2019-02-28T06:03:32.458Z,95565.03
2019-02-28T06:06:01.305Z,95565.57
2019-02-28T06:08:29.193Z,95561.08
2019-02-28T06:11:00.601Z,95563.31
2019-02-28T06:13:29.752Z,95567.02
2019-02-28T06:15:57.676Z,95566.64
2019-02-28T06:18:26.998Z,95566.38
2019-02-28T06:20:53.623Z,95568.27
2019-02-28T06:23:21.521Z,95566.56
2019-02-28T06:25:49.513Z,95571.81
2019-02-28T06:28:17.409Z,95569.98
2019-02-28T06:30:45.332Z,95567.70
2019-02-28T06:33:13.235Z,95563.58
2019-02-28T06:35:41.145Z,95570.48
2019-02-28T06:38:09.041Z,95574.57
2019-02-28T06:40:37.882Z,95576.69
2019-02-28T06:43:05.845Z,95571.73
2019-02-28T06:45:36.994Z,95573.05
2019-02-28T06:48:02.154Z,95573.33
2019-02-28T06:50:31.931Z,95580.55
2019-02-28T06:52:59.952Z,95583.88
2019-02-28T06:55:27.788Z,95577.97
2019-02-28T06:57:58.838Z,95577.05
2019-02-28T07:00:24.579Z,95573.71
2019-02-28T07:02:56.283Z,95582.04
2019-02-28T07:05:28.096Z,95578.98
2019-02-28T07:07:56.506Z,95579.86
2019-02-28T07:10:25.397Z,95572.81
2019-02-28T07:12:53.279Z,95573.14
2019-02-28T07:15:24.781Z,95572.16
2019-02-28T07:17:49.078Z,95575.73
2019-02-28T07:20:17.716Z,95575.92
2019-02-28T07:22:45.622Z,95578.98
2019-02-28T07:25:13.899Z,95581.61
2019-02-28T07:27:41.468Z,95592.52
2019-02-28T07:30:09.972Z,95594.25
2019-02-28T07:32:43.472Z,95589.18
2019-02-28T07:35:11.368Z,95586.52
2019-02-28T07:37:39.338Z,95595.47
2019-02-28T07:40:08.615Z,95585.00
2019-02-28T07:42:37.565Z,95584.92
2019-02-28T07:45:04.531Z,95579.98
2019-02-28T07:47:34.351Z,95584.39
2019-02-28T07:50:02.280Z,95577.12
2019-02-28T07:52:33.454Z,95570.94
2019-02-28T07:54:59.036Z,95578.73
2019-02-28T07:57:26.943Z,95577.06
2019-02-28T07:59:55.047Z,95579.00
2019-02-28T08:02:22.991Z,95574.30
2019-02-28T08:04:54.280Z,95570.28
2019-02-28T08:07:18.800Z,95578.20
2019-02-28T08:09:46.704Z,95576.08
2019-02-28T08:12:14.623Z,95577.08
2019-02-28T08:14:43.659Z,95578.67
2019-02-28T08:17:10.531Z,95580.36
2019-02-28T08:19:43.025Z,95570.07
2019-02-28T08:22:10.897Z,95568.67
2019-02-28T08:24:38.809Z,95576.51
2019-02-28T08:27:06.851Z,95574.82
2019-02-28T08:29:34.743Z,95572.98
2019-02-28T08:32:06.573Z,95570.28
2019-02-28T08:34:30.549Z,95574.77
2019-02-28T08:36:58.471Z,95565.60
2019-02-28T08:39:26.375Z,95556.30
2019-02-28T08:42:04.550Z,95563.61
2019-02-28T08:44:28.217Z,95563.87
2019-02-28T08:46:56.080Z,95575.30
2019-02-28T08:49:23.999Z,95558.80
2019-02-28T08:51:51.905Z,95570.36
2019-02-28T08:54:26.110Z,95564.98
2019-02-28T08:56:49.665Z,95562.97
2019-02-28T08:59:20.445Z,95559.73
2019-02-28T09:01:44.292Z,95563.63
2019-02-28T09:04:11.605Z,95550.73
2019-02-28T09:06:40.939Z,95559.73
2019-02-28T09:09:07.543Z,95559.01
2019-02-28T09:11:35.436Z,95583.59
2019-02-28T09:14:03.375Z,95568.89
2019-02-28T09:16:31.298Z,95550.20
2019-02-28T09:19:00.872Z,95555.80
2019-02-28T09:21:27.176Z,95552.68
2019-02-28T09:23:55.104Z,95554.67
2019-02-28T09:26:23.024Z,95559.55
2019-02-28T09:28:51.948Z,95550.87
2019-02-28T09:31:19.843Z,95548.67
2019-02-28T09:33:47.779Z,95539.72
2019-02-28T09:36:20.230Z,95539.27
2019-02-28T09:38:45.244Z,95536.41
2019-02-28T09:41:11.564Z,95532.13
2019-02-28T09:43:40.422Z,95531.78
2019-02-28T09:46:09.088Z,95528.21
2019-02-28T09:48:37.267Z,95523.41
2019-02-28T09:51:04.248Z,95544.06
2019-02-28T09:53:33.056Z,95533.70
2019-02-28T09:56:00.962Z,95563.92
2019-02-28T09:58:29.359Z,95539.02
2019-02-28T10:00:56.767Z,95558.30
2019-02-28T10:03:24.731Z,95547.13
2019-02-28T10:05:52.657Z,95533.28
2019-02-28T10:08:21.774Z,95543.34
2019-02-28T10:10:48.456Z,95545.26
2019-02-28T10:13:18.275Z,95541.09
2019-02-28T10:15:44.282Z,95540.36
2019-02-28T10:18:12.188Z,95535.08
2019-02-28T10:20:41.052Z,95528.11
2019-02-28T10:23:09.025Z,95536.66
2019-02-28T10:25:41.012Z,95542.89
2019-02-28T10:28:04.895Z,95538.63
2019-02-28T10:30:32.843Z,95538.91
2019-02-28T10:33:00.765Z,95550.11
2019-02-28T10:35:28.674Z,95536.17
2019-02-28T10:37:58.408Z,95540.03
2019-02-28T10:40:26.050Z,95538.65
2019-02-28T10:42:54.969Z,95539.69
2019-02-28T10:45:22.869Z,95540.22
2019-02-28T10:47:50.791Z,95547.45
2019-02-28T10:50:20.372Z,95536.41
2019-02-28T10:52:48.288Z,95540.06
2019-02-28T10:55:16.201Z,95534.32
2019-02-28T10:57:44.123Z,95526.34
2019-02-28T11:00:22.904Z,95527.26
2019-02-28T11:02:53.739Z,95527.95
2019-02-28T11:05:19.536Z,95524.98
2019-02-28T11:07:46.687Z,95537.80
2019-02-28T11:10:14.656Z,95509.55
2019-02-28T11:12:42.548Z,95525.35
2019-02-28T11:15:13.943Z,95515.56
2019-02-28T11:17:38.411Z,95503.45
2019-02-28T11:20:08.948Z,95511.96
2019-02-28T11:22:39.902Z,95493.56
2019-02-28T11:25:06.393Z,95518.14
2019-02-28T11:27:35.270Z,95499.41
2019-02-28T11:30:03.163Z,95508.61
2019-02-28T11:32:32.045Z,95500.40
2019-02-28T11:34:59.955Z,95484.28
2019-02-28T11:37:27.860Z,95498.31
2019-02-28T11:39:56.672Z,95497.00
2019-02-28T11:42:27.982Z,95488.70
2019-02-28T11:44:52.507Z,95490.59
2019-02-28T11:47:20.412Z,95486.74
2019-02-28T11:49:49.223Z,95473.28
2019-02-28T11:52:17.154Z,95500.02
2019-02-28T11:54:45.406Z,95493.86
2019-02-28T11:57:12.987Z,95486.27
2019-02-28T11:59:40.899Z,95480.03
2019-02-28T12:02:08.807Z,95482.09
2019-02-28T12:04:37.484Z,95515.89
2019-02-28T12:07:04.658Z,95493.68
2019-02-28T12:09:32.585Z,95512.15
2019-02-28T12:12:00.503Z,95470.67
2019-02-28T12:14:30.098Z,95479.83
2019-02-28T12:16:57.325Z,95489.00
2019-02-28T12:19:28.413Z,95468.76
2019-02-28T12:21:55.163Z,95475.77
2019-02-28T12:24:29.363Z,95451.52
2019-02-28T12:26:55.888Z,95461.31
2019-02-28T12:29:24.861Z,95475.95
2019-02-28T12:31:52.761Z,95456.19
2019-02-28T12:34:20.656Z,95460.22
2019-02-28T12:36:49.430Z,95461.03
2019-02-28T12:39:16.498Z,95468.19
2019-02-28T12:41:44.419Z,95446.27
2019-02-28T12:44:15.155Z,95448.58
2019-02-28T12:46:40.251Z,95453.37
2019-02-28T12:49:08.228Z,95457.11
2019-02-28T12:51:36.446Z,95453.19
2019-02-28T12:54:04.064Z,95464.49
2019-02-28T12:56:31.956Z,95448.66
2019-02-28T12:58:59.868Z,95448.66
2019-02-28T13:01:27.784Z,95435.63
2019-02-28T13:04:00.187Z,95441.84
2019-02-28T13:06:24.583Z,95458.10
2019-02-28T13:08:53.435Z,95428.06
2019-02-28T13:11:19.488Z,95443.47
2019-02-28T13:14:00.031Z,95452.59
2019-02-28T13:16:25.068Z,95415.20
2019-02-28T13:18:53.071Z,95427.28
2019-02-28T13:21:20.989Z,95425.95
2019-02-28T13:23:48.893Z,95419.33
2019-02-28T13:26:16.813Z,95426.95
2019-02-28T13:28:44.737Z,95421.55
2019-02-28T13:31:12.630Z,95423.71
2019-02-28T13:33:40.531Z,95413.98
2019-02-28T13:36:08.472Z,95412.65
2019-02-28T13:38:36.401Z,95413.64
2019-02-28T13:41:04.309Z,95417.75
2019-02-28T13:43:32.291Z,95404.40
2019-02-28T13:46:00.215Z,95389.88
2019-02-28T13:48:33.121Z,95394.13
2019-02-28T13:50:59.365Z,95394.41
2019-02-28T13:53:27.096Z,95396.74
2019-02-28T13:55:52.692Z,95386.69
2019-02-28T13:58:21.629Z,95389.02
2019-02-28T14:00:47.854Z,95378.86
2019-02-28T14:03:17.046Z,95372.58
2019-02-28T14:05:47.144Z,95395.17
2019-02-28T14:08:15.956Z,95373.00
2019-02-28T14:10:43.869Z,95389.54
2019-02-28T14:13:11.773Z,95390.91
2019-02-28T14:15:52.368Z,95375.48
2019-02-28T14:18:16.318Z,95367.63
2019-02-28T14:20:44.230Z,95393.12
2019-02-28T14:23:12.139Z,95374.08
2019-02-28T14:25:41.206Z,95383.52
2019-02-28T14:28:11.334Z,95362.95
2019-02-28T14:30:39.285Z,95376.37
2019-02-28T14:33:07.184Z,95363.11
2019-02-28T14:35:38.467Z,95367.37
2019-02-28T14:38:04.011Z,95367.92
2019-02-28T14:40:32.872Z,95372.40
2019-02-28T14:43:00.793Z,95352.75
2019-02-28T14:45:29.455Z,95364.59
2019-02-28T14:48:00.777Z,95353.37
2019-02-28T14:50:26.236Z,95360.14
2019-02-28T14:52:54.978Z,95357.31
2019-02-28T14:55:22.974Z,95344.97
2019-02-28T14:57:51.904Z,95357.98
2019-02-28T15:00:20.527Z,95348.90
2019-02-28T15:02:48.464Z,95355.02
2019-02-28T15:05:16.715Z,95342.94
2019-02-28T15:07:47.831Z,95349.57
2019-02-28T15:10:26.076Z,95355.12
2019-02-28T15:12:55.282Z,95349.91
2019-02-28T15:15:21.941Z,95352.77
2019-02-28T15:17:55.429Z,95365.70
2019-02-28T15:20:24.403Z,95337.29
2019-02-28T15:22:55.538Z,95347.52
2019-02-28T15:25:21.801Z,95359.20
2019-02-28T15:27:49.762Z,95341.27
2019-02-28T15:30:20.205Z,95335.77
2019-02-28T15:32:50.689Z,95333.66
2019-02-28T15:35:16.768Z,95328.47
2019-02-28T15:37:44.687Z,95338.59
2019-02-28T15:40:16.315Z,95341.84
2019-02-28T15:42:42.899Z,95333.75
2019-02-28T15:45:10.407Z,95331.83
2019-02-28T15:47:38.296Z,95334.25
2019-02-28T15:50:06.979Z,95341.62
2019-02-28T15:52:36.695Z,95351.77
2019-02-28T15:55:03.692Z,95332.39
2019-02-28T15:57:32.509Z,95332.11
2019-02-28T16:00:02.331Z,95334.06
2019-02-28T16:02:30.259Z,95329.81
2019-02-28T16:05:05.195Z,95321.80
2019-02-28T16:07:32.380Z,95326.29
2019-02-28T16:09:57.057Z,95317.56
2019-02-28T16:12:23.115Z,95326.95
2019-02-28T16:14:52.028Z,95319.58
2019-02-28T16:17:19.972Z,95329.37
2019-02-28T16:19:48.030Z,95325.94
2019-02-28T16:22:18.117Z,95326.91
2019-02-28T16:24:43.849Z,95322.98
2019-02-28T16:27:12.651Z,95310.66
2019-02-28T16:29:41.479Z,95334.76
2019-02-28T16:32:09.401Z,95324.78
2019-02-28T16:34:38.734Z,95322.55
2019-02-28T16:37:05.219Z,95320.86
2019-02-28T16:39:39.166Z,95325.39
2019-02-28T16:42:08.282Z,95328.02
2019-02-28T16:44:36.064Z,95331.67
2019-02-28T16:47:04.067Z,95327.95
2019-02-28T16:49:33.977Z,95331.63
2019-02-28T16:52:02.463Z,95332.35
2019-02-28T16:54:30.777Z,95344.29
2019-02-28T16:56:58.677Z,95334.08
2019-02-28T16:59:28.394Z,95336.05
2019-02-28T17:01:55.606Z,95332.65
2019-02-28T17:04:22.534Z,95343.67
2019-02-28T17:06:56.116Z,95336.36
2019-02-28T17:09:26.548Z,95344.20
2019-02-28T17:11:57.232Z,95349.39
2019-02-28T17:14:25.148Z,95344.02
2019-02-28T17:16:59.640Z,95348.70
2019-02-28T17:19:28.529Z,95355.12
2019-02-28T17:21:56.392Z,95353.02
2019-02-28T17:24:24.292Z,95355.45
2019-02-28T17:26:57.617Z,95362.11
2019-02-28T17:29:26.129Z,95362.08
2019-02-28T17:31:53.453Z,95369.72
2019-02-28T17:34:24.522Z,95364.31
2019-02-28T17:36:49.280Z,95370.25
2019-02-28T17:39:17.188Z,95367.73
2019-02-28T17:41:45.113Z,95375.42
2019-02-28T17:44:20.719Z,95380.66
2019-02-28T17:46:48.646Z,95371.81
2019-02-28T17:52:33.658Z,95382.89
2019-02-28T17:58:08.020Z,95394.75
2019-02-28T18:03:36.567Z,95389.87
2019-02-28T18:06:17.972Z,95394.38
2019-02-28T18:11:42.289Z,95392.31
2019-02-28T18:23:12.191Z,95388.52
2019-02-28T18:28:54.838Z,95385.95
2019-02-28T18:31:22.974Z,95383.05
2019-02-28T18:33:52.273Z,95380.32
2019-02-28T18:36:18.657Z,95374.41
2019-02-28T18:38:58.335Z,95375.16
2019-02-28T18:41:31.756Z,95370.97
2019-02-28T18:44:00.053Z,95369.90
2019-02-28T18:46:29.515Z,95372.68
2019-02-28T18:48:55.755Z,95373.02
2019-02-28T18:51:23.487Z,95366.59
2019-02-28T18:53:51.540Z,95362.77
2019-02-28T18:56:19.440Z,95364.12
2019-02-28T18:58:47.354Z,95367.89
2019-02-28T19:01:15.361Z,95371.50
2019-02-28T19:03:45.186Z,95372.16
2019-02-28T19:06:13.178Z,95378.11
2019-02-28T19:08:41.092Z,95379.41
2019-02-28T19:11:09.892Z,95376.47
2019-02-28T19:13:37.820Z,95377.70
2019-02-28T19:16:05.856Z,95377.36
2019-02-28T19:18:33.780Z,95378.03
2019-02-28T19:21:01.707Z,95379.46
2019-02-28T19:23:41.248Z,95377.05
2019-02-28T19:26:09.129Z,95382.34
2019-02-28T19:28:37.062Z,95379.88
2019-02-28T19:31:06.931Z,95384.69
2019-02-28T19:33:34.855Z,95380.66
2019-02-28T19:36:02.778Z,95385.34
2019-02-28T19:38:33.781Z,95388.23
2019-02-28T19:41:01.689Z,95393.70
2019-02-28T19:43:29.604Z,95392.83
2019-02-28T19:45:57.551Z,95396.31
2019-02-28T19:48:25.491Z,95390.44
2019-02-28T19:50:53.425Z,95384.69
2019-02-28T19:53:21.344Z,95384.78
2019-02-28T19:55:56.804Z,95383.59
2019-02-28T19:58:23.618Z,95387.64
2019-02-28T20:00:52.081Z,95389.34
2019-02-28T20:03:19.435Z,95386.32
2019-02-28T20:05:47.383Z,95389.66
2019-02-28T20:08:15.341Z,95395.89
2019-02-28T20:10:43.239Z,95400.75
2019-02-28T20:13:11.184Z,95404.86
2019-02-28T20:15:40.825Z,95408.04
2019-02-28T20:18:09.694Z,95404.97
2019-02-28T20:20:37.591Z,95410.11
2019-02-28T20:23:05.500Z,95413.02
2019-02-28T20:25:37.356Z,95412.45
2019-02-28T20:28:05.264Z,95416.72
2019-02-28T20:30:33.190Z,95421.48
2019-02-28T20:33:01.114Z,95424.97
2019-02-28T20:35:29.022Z,95424.62
2019-02-28T20:37:57.021Z,95426.25
2019-02-28T20:40:28.431Z,95429.03
2019-02-28T20:42:56.349Z,95430.88
2019-02-28T20:45:24.329Z,95430.44
2019-02-28T20:47:57.587Z,95429.42
2019-02-28T20:50:26.069Z,95429.77
2019-02-28T20:52:53.954Z,95434.63
2019-02-28T20:55:21.894Z,95442.73
2019-02-28T20:57:54.571Z,95443.03
2019-02-28T21:00:25.509Z,95435.36
2019-02-28T21:02:53.468Z,95444.67
2019-02-28T21:05:21.373Z,95446.43
2019-02-28T21:07:52.497Z,95450.38
2019-02-28T21:10:20.485Z,95457.72
2019-02-28T21:12:54.846Z,95460.48
2019-02-28T21:15:25.011Z,95460.17
2019-02-28T21:17:53.398Z,95460.26
2019-02-28T21:20:21.545Z,95458.30
2019-02-28T21:22:55.592Z,95457.43
2019-02-28T21:25:24.683Z,95463.95
2019-02-28T21:34:51.858Z,95464.38
2019-02-28T21:37:23.503Z,95471.98
2019-02-28T21:39:52.494Z,95473.63
2019-02-28T21:42:20.428Z,95469.67
2019-02-28T21:44:48.326Z,95479.23
2019-02-28T21:47:16.368Z,95480.87
2019-02-28T21:49:45.204Z,95485.62
2019-02-28T21:52:13.120Z,95484.09
2019-02-28T21:54:44.312Z,95488.68
2019-02-28T21:57:12.315Z,95488.17
2019-02-28T21:59:46.014Z,95494.42
2019-02-28T22:02:13.916Z,95491.97
2019-02-28T22:04:41.850Z,95496.36
2019-02-28T22:07:09.764Z,95500.19
2019-02-28T22:09:38.619Z,95495.19
2019-02-28T22:12:08.427Z,95504.05
2019-02-28T22:14:36.396Z,95507.73
2019-02-28T22:17:04.319Z,95501.55
2019-02-28T22:19:32.184Z,95505.95
2019-02-28T22:22:01.996Z,95504.73
2019-02-28T22:24:33.741Z,95507.45
2019-02-28T22:27:01.674Z,95510.39
2019-02-28T22:29:42.193Z,95516.52
2019-02-28T22:32:10.102Z,95513.14
2019-02-28T22:34:38.004Z,95510.30
2019-02-28T22:37:05.936Z,95511.23
2019-02-28T22:39:34.739Z,95511.80
2019-02-28T22:42:02.640Z,95513.13
2019-02-28T22:44:30.605Z,95515.38
2019-02-28T22:46:58.513Z,95512.30
2019-02-28T22:49:26.408Z,95508.81
2019-02-28T22:51:54.317Z,95491.31
2019-02-28T22:54:22.230Z,95490.16
2019-02-28T22:56:50.126Z,95491.92
2019-02-28T22:59:18.104Z,95487.27
2019-02-28T23:01:47.996Z,95486.45
2019-02-28T23:04:15.932Z,95485.30
2019-02-28T23:06:50.338Z,95485.05
2019-02-28T23:09:18.253Z,95479.16
2019-02-28T23:11:46.192Z,95481.17
2019-02-28T23:14:14.077Z,95480.23
2019-02-28T23:16:45.321Z,95477.46
2019-02-28T23:19:13.209Z,95470.89
2019-02-28T23:21:41.125Z,95466.51
2019-02-28T23:24:09.027Z,95461.47
2019-02-28T23:26:53.551Z,95472.99
2019-02-28T23:29:21.449Z,95470.32
2019-02-28T23:32:09.797Z,95471.33
2019-02-28T23:34:39.596Z,95470.52
2019-02-28T23:37:07.524Z,95462.50
2019-02-28T23:39:35.432Z,95467.05
2019-02-28T23:42:03.355Z,95470.20
2019-02-28T23:44:33.404Z,95465.06
2019-02-28T23:47:01.292Z,95460.98
2019-02-28T23:49:29.216Z,95454.34
2019-02-28T23:51:57.122Z,95454.64
2019-02-28T23:54:25.062Z,95450.81
2019-02-28T23:56:52.955Z,95449.61
2019-02-28T23:59:20.860Z,95447.77
